Bessie Ellen — ZITL7 — position and weather

sailwx.info

Track history (hours):
 
Tides and Currents Weather Stations Pressure Air Temp Water Temp Dewpoint Dewpoint Depression Visibility Wind Speed Wind Dir Waves Ship Positions

Bessie Ellen

Ship's website: http://bessie-ellen.com/blog/

Last reported at 2017-Sep-17 15:45 UTC. Time now 2017-Sep-24 06:59 UTC.
Position N 54°15' W 005°22'.

Length 28 m.

Type: Sailing vessel. MMSI: 235005952.

Date/timePositionNaut miles runAvg speedWind from/ knotsBaromVisibWave heightAir tempDewpointWater temp
2017-Sep-17 15:45N 54°15' W 005°22'1 5.3
2017-Sep-17 15:30N 54°16' W 005°21'3 5.1
2017-Sep-17 14:53N 54°19' W 005°18'2 5.1
2017-Sep-17 14:29N 54°21' W 005°16'3 5.3
2017-Sep-17 14:00N 54°23' W 005°15'3 5.6
2017-Sep-17 13:31N 54°26' W 005°13'3 5.1
2017-Sep-17 13:01N 54°28' W 005°15'3 5.3
2017-Sep-17 12:31N 54°30' W 005°17'3 5.2
2017-Sep-17 12:01N 54°33' W 005°19'3 5.4
2017-Sep-17 11:30N 54°35' W 005°20'2 4.9
2017-Sep-17 11:01N 54°38' W 005°22'2 3.4
2017-Sep-17 10:31N 54°39' W 005°24'2 4.3
2017-Sep-17 10:00N 54°41' W 005°25'2 4.4
2017-Sep-17 09:30N 54°43' W 005°26'3 5.0
2017-Sep-17 09:00N 54°46' W 005°27'3 6.6
2017-Sep-17 08:31N 54°49' W 005°29'4 7.1
2017-Sep-17 08:00N 54°52' W 005°31'27 7.7
2017-Sep-17 04:25N 55°17' W 005°52'15 7.1
2017-Sep-17 02:16N 55°32' W 005°53'3 5.8
2017-Sep-17 01:48N 55°35' W 005°53'2 6.0
2017-Sep-17 01:30N 55°37' W 005°53'3 5.8
2017-Sep-17 01:00N 55°40' W 005°53'44 4.9
2017-Sep-16 15:55N 56°22' W 005°33'3 6.2
2017-Sep-16 15:30N 56°24' W 005°30'0 0.0
2017-Sep-16 07:27N 56°24' W 005°30'1 0.2
2017-Sep-16 03:07N 56°24' W 005°31'0 0.0
2017-Sep-16 02:10N 56°24' W 005°31'0 0.0
2017-Sep-16 01:58N 56°24' W 005°31'0 0.0
2017-Sep-16 01:30N 56°24' W 005°31'0 0.0
2017-Sep-16 00:24N 56°24' W 005°31'0 0.0
2017-Sep-15 23:57N 56°24' W 005°31'0 0.0
2017-Sep-15 23:30N 56°24' W 005°31'0 0.0
2017-Sep-15 22:53N 56°24' W 005°31'0 0.0
2017-Sep-15 22:29N 56°24' W 005°31'0 0.0
2017-Sep-15 21:56N 56°24' W 005°31'0 0.0
2017-Sep-15 21:25N 56°24' W 005°31'0 0.0
2017-Sep-15 20:59N 56°24' W 005°31'0 0.0
2017-Sep-15 20:23N 56°24' W 005°31'0 0.0
2017-Sep-15 19:58N 56°24' W 005°31'0 0.0
2017-Sep-15 19:30N 56°24' W 005°31'0 0.0
2017-Sep-15 18:53N 56°24' W 005°31'0 0.0
2017-Sep-15 17:06N 56°24' W 005°31'  
2017-Sep-11 10:42N 56°31' W 005°35'1 6.6
2017-Sep-11 10:30N 56°32' W 005°34'3 6.8
2017-Sep-11 10:00N 56°34' W 005°29'3 5.6
2017-Sep-11 09:30N 56°36' W 005°25'1 2.5
2017-Sep-11 08:59N 56°36' W 005°22'1 0.2
2017-Sep-11 04:31N 56°35' W 005°23'0 0.0
2017-Sep-11 04:07N 56°35' W 005°23'0 0.0
2017-Sep-11 03:46N 56°35' W 005°23'0 0.0
2017-Sep-11 03:22N 56°35' W 005°23'  
2017-Sep-08 07:59N 56°25' W 005°29'0 0.0
2017-Sep-08 07:30N 56°25' W 005°29'0 0.0
2017-Sep-08 05:46N 56°25' W 005°29'0 0.0
2017-Sep-08 05:30N 56°25' W 005°29'0 0.0
2017-Sep-08 05:00N 56°25' W 005°29'0 0.0
2017-Sep-08 04:26N 56°25' W 005°29'0 0.0
2017-Sep-08 03:56N 56°25' W 005°29'0 0.0
2017-Sep-08 03:30N 56°25' W 005°29'0 0.0
2017-Sep-08 03:00N 56°25' W 005°29'0 0.0
2017-Sep-08 02:30N 56°25' W 005°29'0 0.0
2017-Sep-08 02:00N 56°25' W 005°29'0 0.0
2017-Sep-08 01:29N 56°25' W 005°29'0 0.0
2017-Sep-08 01:00N 56°25' W 005°29'0 0.0
2017-Sep-08 00:19N 56°25' W 005°29'0 0.0
2017-Sep-07 23:42N 56°25' W 005°29'0 0.0
2017-Sep-07 23:25N 56°25' W 005°29'0 0.0
2017-Sep-07 22:59N 56°25' W 005°29'0 0.0
2017-Sep-07 22:30N 56°25' W 005°29'0 0.0
2017-Sep-07 22:00N 56°25' W 005°29'0 0.0
2017-Sep-07 21:30N 56°25' W 005°29'0 0.0
2017-Sep-07 20:57N 56°25' W 005°29'0 0.0
2017-Sep-07 20:27N 56°25' W 005°29'0 0.0
2017-Sep-07 19:59N 56°25' W 005°29'0 0.0
2017-Sep-07 19:30N 56°25' W 005°29'0 0.0
2017-Sep-07 19:00N 56°25' W 005°29'0 0.0
2017-Sep-07 17:35N 56°25' W 005°29'0 2.3
2017-Sep-07 17:26N 56°25' W 005°29'  
Track history (hours):
 
Tides and Currents Weather Stations Pressure Air Temp Water Temp Dewpoint Dewpoint Depression Visibility Wind Speed Wind Dir Waves Ship Positions

Bessie Ellen

Ship's website: http://bessie-ellen.com/blog/

Last reported at 2017-Sep-17 15:45 UTC. Time now 2017-Sep-24 06:59 UTC.
Position N 54°15' W 005°22'.

Length 28 m.

Type: Sailing vessel. MMSI: 235005952.

Date/timePositionNaut miles runAvg speedWind from/ knotsBaromVisibWave heightAir tempDewpointWater temp
2017-Sep-17 15:45N 54°15' W 005°22'1 5.3
2017-Sep-17 15:30N 54°16' W 005°21'3 5.1
2017-Sep-17 14:53N 54°19' W 005°18'2 5.1
2017-Sep-17 14:29N 54°21' W 005°16'3 5.3
2017-Sep-17 14:00N 54°23' W 005°15'3 5.6
2017-Sep-17 13:31N 54°26' W 005°13'3 5.1
2017-Sep-17 13:01N 54°28' W 005°15'3 5.3
2017-Sep-17 12:31N 54°30' W 005°17'3 5.2
2017-Sep-17 12:01N 54°33' W 005°19'3 5.4
2017-Sep-17 11:30N 54°35' W 005°20'2 4.9
2017-Sep-17 11:01N 54°38' W 005°22'2 3.4
2017-Sep-17 10:31N 54°39' W 005°24'2 4.3
2017-Sep-17 10:00N 54°41' W 005°25'2 4.4
2017-Sep-17 09:30N 54°43' W 005°26'3 5.0
2017-Sep-17 09:00N 54°46' W 005°27'3 6.6
2017-Sep-17 08:31N 54°49' W 005°29'4 7.1
2017-Sep-17 08:00N 54°52' W 005°31'27 7.7
2017-Sep-17 04:25N 55°17' W 005°52'15 7.1
2017-Sep-17 02:16N 55°32' W 005°53'3 5.8
2017-Sep-17 01:48N 55°35' W 005°53'2 6.0
2017-Sep-17 01:30N 55°37' W 005°53'3 5.8
2017-Sep-17 01:00N 55°40' W 005°53'44 4.9
2017-Sep-16 15:55N 56°22' W 005°33'3 6.2
2017-Sep-16 15:30N 56°24' W 005°30'0 0.0
2017-Sep-16 07:27N 56°24' W 005°30'1 0.2
2017-Sep-16 03:07N 56°24' W 005°31'0 0.0
2017-Sep-16 02:10N 56°24' W 005°31'0 0.0
2017-Sep-16 01:58N 56°24' W 005°31'0 0.0
2017-Sep-16 01:30N 56°24' W 005°31'0 0.0
2017-Sep-16 00:24N 56°24' W 005°31'0 0.0
2017-Sep-15 23:57N 56°24' W 005°31'0 0.0
2017-Sep-15 23:30N 56°24' W 005°31'0 0.0
2017-Sep-15 22:53N 56°24' W 005°31'0 0.0
2017-Sep-15 22:29N 56°24' W 005°31'0 0.0
2017-Sep-15 21:56N 56°24' W 005°31'0 0.0
2017-Sep-15 21:25N 56°24' W 005°31'0 0.0
2017-Sep-15 20:59N 56°24' W 005°31'0 0.0
2017-Sep-15 20:23N 56°24' W 005°31'0 0.0
2017-Sep-15 19:58N 56°24' W 005°31'0 0.0
2017-Sep-15 19:30N 56°24' W 005°31'0 0.0
2017-Sep-15 18:53N 56°24' W 005°31'0 0.0
2017-Sep-15 17:06N 56°24' W 005°31'  
2017-Sep-11 10:42N 56°31' W 005°35'1 6.6
2017-Sep-11 10:30N 56°32' W 005°34'3 6.8
2017-Sep-11 10:00N 56°34' W 005°29'3 5.6
2017-Sep-11 09:30N 56°36' W 005°25'1 2.5
2017-Sep-11 08:59N 56°36' W 005°22'1 0.2
2017-Sep-11 04:31N 56°35' W 005°23'0 0.0
2017-Sep-11 04:07N 56°35' W 005°23'0 0.0
2017-Sep-11 03:46N 56°35' W 005°23'0 0.0
2017-Sep-11 03:22N 56°35' W 005°23'  
2017-Sep-08 07:59N 56°25' W 005°29'0 0.0
2017-Sep-08 07:30N 56°25' W 005°29'0 0.0
2017-Sep-08 05:46N 56°25' W 005°29'0 0.0
2017-Sep-08 05:30N 56°25' W 005°29'0 0.0
2017-Sep-08 05:00N 56°25' W 005°29'0 0.0
2017-Sep-08 04:26N 56°25' W 005°29'0 0.0
2017-Sep-08 03:56N 56°25' W 005°29'0 0.0
2017-Sep-08 03:30N 56°25' W 005°29'0 0.0
2017-Sep-08 03:00N 56°25' W 005°29'0 0.0
2017-Sep-08 02:30N 56°25' W 005°29'0 0.0
2017-Sep-08 02:00N 56°25' W 005°29'0 0.0
2017-Sep-08 01:29N 56°25' W 005°29'0 0.0
2017-Sep-08 01:00N 56°25' W 005°29'0 0.0
2017-Sep-08 00:19N 56°25' W 005°29'0 0.0
2017-Sep-07 23:42N 56°25' W 005°29'0 0.0
2017-Sep-07 23:25N 56°25' W 005°29'0 0.0
2017-Sep-07 22:59N 56°25' W 005°29'0 0.0
2017-Sep-07 22:30N 56°25' W 005°29'0 0.0
2017-Sep-07 22:00N 56°25' W 005°29'0 0.0
2017-Sep-07 21:30N 56°25' W 005°29'0 0.0
2017-Sep-07 20:57N 56°25' W 005°29'0 0.0
2017-Sep-07 20:27N 56°25' W 005°29'0 0.0
2017-Sep-07 19:59N 56°25' W 005°29'0 0.0
2017-Sep-07 19:30N 56°25' W 005°29'0 0.0
2017-Sep-07 19:00N 56°25' W 005°29'0 0.0
2017-Sep-07 17:35N 56°25' W 005°29'0 2.3
2017-Sep-07 17:26N 56°25' W 005°29'  

Dump ship's entire track history